createdAt,value
2023-05-01T00:00:31.651Z,0.00
2023-05-01T00:01:31.843Z,0.00
2023-05-01T00:02:31.955Z,0.00
2023-05-01T00:03:32.098Z,0.00
2023-05-01T00:04:31.663Z,0.00
2023-05-01T00:05:31.920Z,0.00
2023-05-01T00:06:31.405Z,0.00
2023-05-01T00:07:32.106Z,0.00
2023-05-01T00:08:31.913Z,0.00
2023-05-01T00:09:32.111Z,0.00
2023-05-01T00:10:31.268Z,0.00
2023-05-01T00:11:32.005Z,0.00
2023-05-01T00:12:31.861Z,0.00
2023-05-01T00:13:31.960Z,0.00
2023-05-01T00:14:31.119Z,0.00
2023-05-01T00:15:32.022Z,0.00
2023-05-01T00:16:32.019Z,0.00
2023-05-01T00:17:31.359Z,0.00
2023-05-01T00:18:32.000Z,0.00
2023-05-01T00:19:31.891Z,0.00
2023-05-01T00:20:31.234Z,0.00
2023-05-01T00:21:31.977Z,0.00
2023-05-01T00:22:31.893Z,0.00
2023-05-01T00:23:32.076Z,0.00
2023-05-01T00:24:31.927Z,0.00
2023-05-01T00:25:31.008Z,0.00
2023-05-01T00:26:31.153Z,0.00
2023-05-01T00:27:31.888Z,0.00
2023-05-01T00:28:31.809Z,0.00
2023-05-01T00:29:30.941Z,0.00
2023-05-01T00:30:30.977Z,0.00
2023-05-01T00:31:31.074Z,0.00
2023-05-01T00:32:31.112Z,0.00
2023-05-01T00:33:31.109Z,0.00
2023-05-01T00:34:31.152Z,0.00
2023-05-01T00:35:31.227Z,0.00
2023-05-01T00:36:30.956Z,0.00
2023-05-01T00:37:31.215Z,0.00
2023-05-01T00:38:31.309Z,0.00
2023-05-01T00:39:31.410Z,0.00
2023-05-01T00:40:31.262Z,0.00
2023-05-01T00:41:31.007Z,0.00
2023-05-01T00:42:30.835Z,0.00
2023-05-01T00:43:31.500Z,0.00
2023-05-01T00:44:31.702Z,0.00
2023-05-01T00:45:31.505Z,0.00
2023-05-01T00:46:31.636Z,0.00
2023-05-01T00:47:30.973Z,0.00
2023-05-01T00:48:30.731Z,0.00
2023-05-01T00:49:30.818Z,0.00
2023-05-01T00:50:30.740Z,0.00
2023-05-01T00:51:30.932Z,0.00
2023-05-01T00:52:30.804Z,0.00
2023-05-01T00:53:30.832Z,0.00
2023-05-01T00:54:30.683Z,0.00
2023-05-01T00:55:31.527Z,0.00
2023-05-01T00:56:31.429Z,0.00
2023-05-01T00:57:31.336Z,0.00
2023-05-01T00:58:31.502Z,0.00
2023-05-01T00:59:31.391Z,0.00
2023-05-01T01:00:30.599Z,0.00
2023-05-01T01:01:30.751Z,0.00
2023-05-01T01:02:31.545Z,0.00
2023-05-01T01:03:30.513Z,0.00
2023-05-01T01:04:30.906Z,0.00
2023-05-01T01:05:31.331Z,0.00
2023-05-01T01:06:30.556Z,0.00
2023-05-01T01:07:30.446Z,0.00
2023-05-01T01:08:32.531Z,0.00
2023-05-01T01:09:30.469Z,0.00
2023-05-01T01:10:31.352Z,0.00
2023-05-01T01:11:30.566Z,0.00
2023-05-01T01:12:30.601Z,0.00
2023-05-01T01:13:30.705Z,0.00
2023-05-01T01:14:30.357Z,0.00
2023-05-01T01:15:30.692Z,0.00
2023-05-01T01:16:30.586Z,0.00
2023-05-01T01:17:31.095Z,0.00
2023-05-01T01:18:30.835Z,0.00
2023-05-01T01:19:30.876Z,0.00
2023-05-01T01:20:30.960Z,0.00
2023-05-01T01:21:30.950Z,0.00
2023-05-01T01:22:30.475Z,0.00
2023-05-01T01:23:30.369Z,0.00
2023-05-01T01:24:30.315Z,0.00
2023-05-01T01:25:30.959Z,0.00
2023-05-01T01:26:30.828Z,0.00
2023-05-01T01:27:31.195Z,0.00
2023-05-01T01:28:31.304Z,0.00
2023-05-01T01:29:30.831Z,0.00
2023-05-01T01:30:30.971Z,0.00
2023-05-01T01:31:30.466Z,0.00
2023-05-01T01:32:31.080Z,0.00
2023-05-01T01:33:30.696Z,0.00
2023-05-01T01:34:30.114Z,0.00
2023-05-01T01:35:31.028Z,0.00
2023-05-01T01:36:30.905Z,0.00
2023-05-01T01:37:30.639Z,0.00
2023-05-01T01:38:30.973Z,0.00
2023-05-01T01:39:30.866Z,0.00
2023-05-01T01:40:31.029Z,0.00
2023-05-01T01:42:40.272Z,0.00
2023-05-01T01:43:40.134Z,0.00
2023-05-01T01:44:40.138Z,0.00
2023-05-01T01:45:40.227Z,0.00
2023-05-01T01:46:40.266Z,0.00
2023-05-01T01:47:40.144Z,0.00
2023-05-01T01:48:40.126Z,0.00
2023-05-01T01:49:40.129Z,0.00
2023-05-01T01:50:40.729Z,0.00
2023-05-01T01:51:41.161Z,0.00
2023-05-01T01:52:40.052Z,0.00
2023-05-01T01:53:40.038Z,0.00
2023-05-01T01:54:40.006Z,0.00
2023-05-01T01:55:40.004Z,0.00
2023-05-01T01:56:40.016Z,0.00
2023-05-01T01:57:40.044Z,0.00
2023-05-01T01:58:39.964Z,0.00
2023-05-01T01:59:40.049Z,0.00
2023-05-01T02:00:39.991Z,0.00
2023-05-01T02:01:40.034Z,0.00
2023-05-01T02:02:40.161Z,0.00
2023-05-01T02:03:40.078Z,0.00
2023-05-01T02:04:39.901Z,0.00
2023-05-01T02:05:39.879Z,0.00
2023-05-01T02:06:40.084Z,0.00
2023-05-01T02:07:39.967Z,0.00
2023-05-01T02:08:39.843Z,0.00
2023-05-01T02:09:39.994Z,0.00
2023-05-01T02:10:39.817Z,0.00
2023-05-01T02:11:39.874Z,0.00
2023-05-01T02:12:39.789Z,0.00
2023-05-01T02:13:39.783Z,0.00
2023-05-01T02:14:39.758Z,0.00
2023-05-01T02:15:39.804Z,0.00
2023-05-01T02:16:39.835Z,0.00
2023-05-01T02:17:39.732Z,0.00
2023-05-01T02:18:39.703Z,0.00
2023-05-01T02:19:39.698Z,0.00
2023-05-01T02:20:39.686Z,0.00
2023-05-01T02:21:39.702Z,0.00
2023-05-01T02:22:39.652Z,0.00
2023-05-01T02:23:39.651Z,0.00
2023-05-01T02:24:39.618Z,0.00
2023-05-01T02:25:39.636Z,0.00
2023-05-01T02:26:39.644Z,0.00
2023-05-01T02:27:39.596Z,0.00
2023-05-01T02:28:39.579Z,0.00
2023-05-01T02:29:39.580Z,0.00
2023-05-01T02:30:39.549Z,0.00
2023-05-01T02:31:39.606Z,0.00
2023-05-01T02:32:39.547Z,0.00
2023-05-01T02:33:39.561Z,0.00
2023-05-01T02:34:39.503Z,0.00
2023-05-01T02:35:39.500Z,0.00
2023-05-01T02:36:39.513Z,0.00
2023-05-01T02:37:39.484Z,0.00
2023-05-01T02:38:39.457Z,0.00
2023-05-01T02:39:39.448Z,0.00
2023-05-01T02:40:39.467Z,0.00
2023-05-01T02:41:39.423Z,0.00
2023-05-01T02:42:39.417Z,0.00
2023-05-01T02:43:39.433Z,0.00
2023-05-01T02:44:39.384Z,0.00
2023-05-01T02:45:39.417Z,0.00
2023-05-01T02:46:39.383Z,0.00
2023-05-01T02:47:39.392Z,0.00
2023-05-01T02:48:39.360Z,0.00
2023-05-01T02:49:39.314Z,0.00
2023-05-01T02:50:39.300Z,0.00
2023-05-01T02:51:39.316Z,0.00
2023-05-01T02:52:39.294Z,0.00
2023-05-01T02:53:40.020Z,0.00
2023-05-01T02:54:39.282Z,0.00
2023-05-01T02:55:39.247Z,0.00
2023-05-01T02:56:39.271Z,0.00
2023-05-01T02:57:39.220Z,0.00
2023-05-01T02:58:39.214Z,0.00
2023-05-01T02:59:39.194Z,0.00
2023-05-01T03:00:39.183Z,0.00
2023-05-01T03:01:39.274Z,0.00
2023-05-01T03:02:39.211Z,0.00
2023-05-01T03:03:39.137Z,0.00
2023-05-01T03:04:39.210Z,0.00
2023-05-01T03:05:39.107Z,0.00
2023-05-01T03:06:39.259Z,0.00
2023-05-01T03:07:39.077Z,0.00
2023-05-01T03:08:39.072Z,0.00
2023-05-01T03:09:39.059Z,0.00
2023-05-01T03:10:39.049Z,0.00
2023-05-01T03:11:39.132Z,0.00
2023-05-01T03:12:39.020Z,0.00
2023-05-01T03:13:39.031Z,0.00
2023-05-01T03:14:39.008Z,0.00
2023-05-01T03:15:39.020Z,0.00
2023-05-01T03:16:39.301Z,1.00
2023-05-01T03:17:39.002Z,0.00
2023-05-01T03:18:38.976Z,0.00
2023-05-01T03:19:39.115Z,0.00
2023-05-01T03:20:39.792Z,0.00
2023-05-01T03:21:38.902Z,1.00
2023-05-01T03:22:38.840Z,1.00
2023-05-01T03:23:38.833Z,1.00
2023-05-01T03:24:38.825Z,1.00
2023-05-01T03:25:38.790Z,2.00
2023-05-01T03:26:38.950Z,0.00
2023-05-01T03:27:38.790Z,2.00
2023-05-01T03:28:38.769Z,1.00
2023-05-01T03:29:38.751Z,1.00
2023-05-01T03:30:38.731Z,2.00
2023-05-01T03:31:38.837Z,2.00
2023-05-01T03:32:38.849Z,2.00
2023-05-01T03:33:38.701Z,7.00
2023-05-01T03:34:38.694Z,4.00
2023-05-01T03:35:38.742Z,2.00
2023-05-01T03:36:38.692Z,2.00
2023-05-01T03:37:38.639Z,3.00
2023-05-01T03:38:38.626Z,4.00
2023-05-01T03:39:38.625Z,5.00
2023-05-01T03:40:38.613Z,5.00
2023-05-01T03:41:38.612Z,7.00
2023-05-01T03:42:38.636Z,8.00
2023-05-01T03:43:38.580Z,9.00
2023-05-01T03:44:38.563Z,11.00
2023-05-01T03:45:38.571Z,12.00
2023-05-01T03:46:38.640Z,12.00
2023-05-01T03:47:38.562Z,14.00
2023-05-01T03:48:38.521Z,15.00
2023-05-01T03:49:38.527Z,22.00
2023-05-01T03:50:38.514Z,29.00
2023-05-01T03:51:38.483Z,37.00
2023-05-01T03:52:38.460Z,43.00
2023-05-01T03:53:38.446Z,45.00
2023-05-01T03:54:38.426Z,51.00
2023-05-01T03:55:38.457Z,58.00
2023-05-01T03:56:38.404Z,60.00
2023-05-01T03:57:38.384Z,71.00
2023-05-01T03:58:38.409Z,77.00
2023-05-01T03:59:39.314Z,80.00
2023-05-01T04:00:38.360Z,85.00
2023-05-01T04:01:38.406Z,90.00
2023-05-01T04:02:38.417Z,96.00
2023-05-01T04:03:38.534Z,101.00
2023-05-01T04:04:38.460Z,109.00
2023-05-01T04:05:38.303Z,116.00
2023-05-01T04:06:38.376Z,120.00
2023-05-01T04:07:38.282Z,124.00
2023-05-01T04:08:38.267Z,131.00
2023-05-01T04:09:38.226Z,138.00
2023-05-01T04:10:38.224Z,143.00
2023-05-01T04:11:38.240Z,151.00
2023-05-01T04:12:38.225Z,161.00
2023-05-01T04:13:38.207Z,169.00
2023-05-01T04:14:38.192Z,177.00
2023-05-01T04:15:38.227Z,189.00
2023-05-01T04:16:38.240Z,193.00
2023-05-01T04:17:38.164Z,207.00
2023-05-01T04:18:38.126Z,218.00
2023-05-01T04:19:38.114Z,230.00
2023-05-01T04:20:38.116Z,246.00
2023-05-01T04:21:38.126Z,260.00
2023-05-01T04:22:38.117Z,282.00
2023-05-01T04:23:38.145Z,302.00
2023-05-01T04:24:38.047Z,319.00
2023-05-01T04:25:38.033Z,340.00
2023-05-01T04:26:38.224Z,358.00
2023-05-01T04:27:38.006Z,380.00
2023-05-01T04:28:38.013Z,400.00
2023-05-01T04:29:37.997Z,421.00
2023-05-01T04:30:37.980Z,457.00
2023-05-01T04:31:38.009Z,476.00
2023-05-01T04:32:37.962Z,502.00
2023-05-01T04:33:38.042Z,527.00
2023-05-01T04:34:40.921Z,549.00
2023-05-01T04:35:37.932Z,569.00
2023-05-01T04:36:37.934Z,587.00
2023-05-01T04:37:37.885Z,600.00
2023-05-01T04:38:37.873Z,610.00
2023-05-01T04:39:37.874Z,617.00
2023-05-01T04:40:37.856Z,614.00
2023-05-01T04:41:37.882Z,614.00
2023-05-01T04:42:38.009Z,612.00
2023-05-01T04:43:37.812Z,611.00
2023-05-01T04:44:37.794Z,615.00
2023-05-01T04:45:37.913Z,628.00
2023-05-01T04:46:37.872Z,638.00
2023-05-01T04:47:37.844Z,641.00
2023-05-01T04:48:37.833Z,645.00
2023-05-01T04:49:37.736Z,648.00
2023-05-01T04:50:37.753Z,659.00
2023-05-01T04:51:37.730Z,663.00
2023-05-01T04:52:37.817Z,688.00
2023-05-01T04:53:37.901Z,707.00
2023-05-01T04:54:37.861Z,726.00
2023-05-01T04:55:37.889Z,744.00
2023-05-01T04:56:37.701Z,775.00
2023-05-01T04:57:37.648Z,813.00
2023-05-01T04:58:37.626Z,824.00
2023-05-01T04:59:37.878Z,859.00
2023-05-01T05:00:37.969Z,880.00
2023-05-01T05:01:38.335Z,911.00
2023-05-01T05:02:37.679Z,940.00
2023-05-01T05:03:37.744Z,969.00
2023-05-01T05:04:37.683Z,989.00
2023-05-01T05:05:37.527Z,1001.00
2023-05-01T05:06:37.658Z,1016.00
2023-05-01T05:07:37.487Z,1026.00
2023-05-01T05:08:37.501Z,1044.00
2023-05-01T05:09:37.484Z,1070.00
2023-05-01T05:10:37.477Z,1063.00
2023-05-01T05:11:37.497Z,1068.00
2023-05-01T05:12:37.438Z,1088.00
2023-05-01T05:13:37.421Z,1091.00
2023-05-01T05:14:37.421Z,1117.00
2023-05-01T05:15:37.395Z,1175.00
2023-05-01T05:16:37.489Z,1190.00
2023-05-01T05:17:37.432Z,1259.00
2023-05-01T05:18:37.379Z,1286.00
2023-05-01T05:19:37.360Z,1310.00
2023-05-01T05:20:37.514Z,1330.00
2023-05-01T05:21:37.362Z,1312.00
2023-05-01T05:22:37.318Z,1297.00
2023-05-01T05:23:37.296Z,1298.00
2023-05-01T05:24:37.305Z,1310.00
2023-05-01T05:25:37.263Z,1386.00
2023-05-01T05:26:37.299Z,1394.00
2023-05-01T05:27:37.242Z,1397.00
2023-05-01T05:28:37.236Z,1403.00
2023-05-01T05:29:37.236Z,1391.00
2023-05-01T05:30:37.212Z,1386.00
2023-05-01T05:31:37.269Z,1416.00
2023-05-01T05:32:37.202Z,1412.00
2023-05-01T05:33:37.154Z,1403.00
2023-05-01T05:34:37.159Z,1410.00
2023-05-01T05:35:37.131Z,1430.00
2023-05-01T05:36:37.194Z,1473.00
2023-05-01T05:37:37.126Z,1543.00
2023-05-01T05:38:37.106Z,1586.00
2023-05-01T05:39:37.089Z,1662.00
2023-05-01T05:40:37.093Z,1683.00
2023-05-01T05:41:37.099Z,1673.00
2023-05-01T05:42:37.070Z,1673.00
2023-05-01T05:43:37.037Z,1689.00
2023-05-01T05:44:37.029Z,1737.00
2023-05-01T05:45:37.081Z,1753.00
2023-05-01T05:46:37.079Z,1782.00
2023-05-01T05:47:37.065Z,1819.00
2023-05-01T05:48:36.973Z,1835.00
2023-05-01T05:49:36.965Z,1843.00
2023-05-01T05:50:36.963Z,1916.00
2023-05-01T05:51:36.956Z,1858.00
2023-05-01T05:52:36.933Z,1921.00
2023-05-01T05:53:36.923Z,1949.00
2023-05-01T05:54:36.911Z,1981.00
2023-05-01T05:55:36.887Z,1994.00
2023-05-01T05:56:36.908Z,1979.00
2023-05-01T05:57:36.858Z,1988.00
2023-05-01T05:58:36.850Z,1991.00
2023-05-01T05:59:36.846Z,2008.00
2023-05-01T06:00:36.843Z,2008.00
2023-05-01T06:01:36.821Z,2023.00
2023-05-01T06:02:36.984Z,2021.00
2023-05-01T06:03:36.848Z,2037.00
2023-05-01T06:04:36.772Z,2037.00
2023-05-01T06:05:36.779Z,2075.00
2023-05-01T06:06:36.863Z,2042.00
2023-05-01T06:07:36.731Z,2019.00
2023-05-01T06:08:36.714Z,2029.00
2023-05-01T06:09:36.714Z,2012.00
2023-05-01T06:10:36.730Z,2037.00
2023-05-01T06:11:36.706Z,2031.00
2023-05-01T06:12:39.331Z,2015.00
2023-05-01T06:13:37.652Z,2003.00
2023-05-01T06:14:36.633Z,1989.00
2023-05-01T06:15:36.670Z,1991.00
2023-05-01T06:16:36.705Z,1986.00
2023-05-01T06:17:36.611Z,1950.00
2023-05-01T06:18:36.598Z,1916.00
2023-05-01T06:19:36.575Z,1911.00
2023-05-01T06:20:36.583Z,1909.00
2023-05-01T06:21:36.573Z,1905.00
2023-05-01T06:22:36.552Z,1862.00
2023-05-01T06:23:36.537Z,1944.00
2023-05-01T06:24:36.526Z,1912.00
2023-05-01T06:25:36.519Z,1943.00
2023-05-01T06:26:36.538Z,1939.00
2023-05-01T06:27:36.461Z,1973.00
2023-05-01T06:28:36.462Z,1976.00
2023-05-01T06:29:36.444Z,1960.00
2023-05-01T06:30:36.445Z,1931.00
2023-05-01T06:31:36.481Z,1887.00
2023-05-01T06:32:36.474Z,2040.00
2023-05-01T06:33:36.384Z,2030.00
2023-05-01T06:34:36.398Z,2040.00
2023-05-01T06:35:36.358Z,2011.00
2023-05-01T06:36:36.392Z,1964.00
2023-05-01T06:37:36.347Z,1948.00
2023-05-01T06:38:36.337Z,2005.00
2023-05-01T06:39:36.319Z,2110.00
2023-05-01T06:40:36.319Z,2060.00
2023-05-01T06:41:36.345Z,2063.00
2023-05-01T06:42:36.271Z,2196.00
2023-05-01T06:43:36.265Z,1962.00
2023-05-01T06:44:36.256Z,2149.00
2023-05-01T06:45:36.230Z,2254.00
2023-05-01T06:46:36.309Z,2215.00
2023-05-01T06:47:36.203Z,2170.00
2023-05-01T06:48:36.209Z,2238.00
2023-05-01T06:49:36.181Z,2313.00
2023-05-01T06:50:36.191Z,2380.00
2023-05-01T06:51:36.187Z,2346.00
2023-05-01T06:52:36.148Z,2384.00
2023-05-01T06:53:36.203Z,2340.00
2023-05-01T06:54:36.123Z,2357.00
2023-05-01T06:55:36.106Z,2382.00
2023-05-01T06:56:36.118Z,2312.00
2023-05-01T06:57:36.109Z,2536.00
2023-05-01T06:58:36.056Z,2532.00
2023-05-01T06:59:36.058Z,2453.00
2023-05-01T07:00:36.085Z,2626.00
2023-05-01T07:01:36.089Z,2368.00
2023-05-01T07:02:36.041Z,2573.00
2023-05-01T07:03:36.811Z,2654.00
2023-05-01T07:04:36.009Z,2909.00
2023-05-01T07:05:35.970Z,2612.00
2023-05-01T07:06:36.005Z,2726.00
2023-05-01T07:07:36.583Z,2931.00
2023-05-01T07:08:35.937Z,2701.00
2023-05-01T07:09:35.929Z,3038.00
2023-05-01T07:10:35.917Z,2935.00
2023-05-01T07:11:35.901Z,2638.00
2023-05-01T07:12:35.909Z,2759.00
2023-05-01T07:13:35.872Z,2714.00
2023-05-01T07:14:35.956Z,2571.00
2023-05-01T07:15:36.795Z,2047.00
2023-05-01T07:16:35.877Z,2362.00
2023-05-01T07:17:35.931Z,2529.00
2023-05-01T07:18:35.797Z,2878.00
2023-05-01T07:19:35.789Z,2409.00
2023-05-01T07:20:35.795Z,2362.00
2023-05-01T07:21:35.785Z,1529.00
2023-05-01T07:22:35.772Z,2062.00
2023-05-01T07:23:35.762Z,2157.00
2023-05-01T07:24:35.740Z,1968.00
2023-05-01T07:25:35.709Z,2034.00
2023-05-01T07:26:35.713Z,2062.00
2023-05-01T07:27:35.729Z,2346.00
2023-05-01T07:28:35.667Z,2480.00
2023-05-01T07:29:35.669Z,2103.00
2023-05-01T07:30:35.667Z,2650.00
2023-05-01T07:31:35.684Z,2613.00
2023-05-01T07:32:35.692Z,1674.00
2023-05-01T07:33:35.612Z,2091.00
2023-05-01T07:34:35.600Z,2915.00
2023-05-01T07:35:35.600Z,2889.00
2023-05-01T07:36:35.579Z,2809.00
2023-05-01T07:37:35.590Z,2424.00
2023-05-01T07:38:35.542Z,2575.00
2023-05-01T07:39:35.537Z,2434.00
2023-05-01T07:40:35.534Z,2534.00
2023-05-01T07:41:35.501Z,2760.00
2023-05-01T07:42:35.517Z,2625.00
2023-05-01T07:43:35.504Z,2684.00
2023-05-01T07:44:35.474Z,2551.00
2023-05-01T07:45:35.495Z,2516.00
2023-05-01T07:46:35.482Z,2473.00
2023-05-01T07:47:35.533Z,2680.00
2023-05-01T07:48:36.939Z,2580.00
2023-05-01T07:49:35.409Z,3210.00
2023-05-01T07:50:35.395Z,2468.00
2023-05-01T07:51:35.433Z,2880.00
2023-05-01T07:52:35.396Z,4055.00
2023-05-01T07:53:35.349Z,3131.00
2023-05-01T07:54:35.353Z,2593.00
2023-05-01T07:55:35.332Z,3283.00
2023-05-01T07:56:35.311Z,3348.00
2023-05-01T07:57:35.324Z,2680.00
2023-05-01T07:58:35.277Z,1763.00
2023-05-01T07:59:35.268Z,3551.00
2023-05-01T08:00:35.260Z,3599.00
2023-05-01T08:01:35.246Z,4128.00
2023-05-01T08:02:35.359Z,2386.00
2023-05-01T08:03:35.255Z,3116.00
2023-05-01T08:04:35.293Z,2787.00
2023-05-01T08:05:35.187Z,3804.00
2023-05-01T08:06:35.245Z,2763.00
2023-05-01T08:07:35.194Z,2171.00
2023-05-01T08:08:35.146Z,3572.00
2023-05-01T08:09:35.132Z,2616.00
2023-05-01T08:10:35.350Z,1991.00
2023-05-01T08:11:35.297Z,2897.00
2023-05-01T08:12:35.276Z,2760.00
2023-05-01T08:13:35.096Z,2418.00
2023-05-01T08:14:35.072Z,2969.00
2023-05-01T08:15:35.134Z,3054.00
2023-05-01T08:16:35.076Z,4660.00
2023-05-01T08:17:35.125Z,3669.00
2023-05-01T08:18:35.023Z,3195.00
2023-05-01T08:19:35.017Z,2476.00
2023-05-01T08:20:35.000Z,2822.00
2023-05-01T08:21:35.082Z,4436.00
2023-05-01T08:22:34.959Z,3201.00
2023-05-01T08:23:34.949Z,2987.00
2023-05-01T08:24:34.953Z,2680.00
2023-05-01T08:25:34.936Z,3031.00
2023-05-01T08:26:34.951Z,3063.00
2023-05-01T08:27:34.902Z,2190.00
2023-05-01T08:28:34.895Z,2269.00
2023-05-01T08:29:34.883Z,2130.00
2023-05-01T08:30:34.954Z,3922.00
2023-05-01T08:31:34.951Z,2271.00
2023-05-01T08:32:34.906Z,2155.00
2023-05-01T08:33:34.824Z,4401.00
2023-05-01T08:34:34.815Z,3456.00
2023-05-01T08:35:34.798Z,1822.00
2023-05-01T08:36:34.816Z,4516.00
2023-05-01T08:37:34.771Z,4726.00
2023-05-01T08:38:34.752Z,1748.00
2023-05-01T08:39:34.757Z,3964.00
2023-05-01T08:40:34.732Z,5246.00
2023-05-01T08:41:34.752Z,2284.00
2023-05-01T08:42:34.724Z,3981.00
2023-05-01T08:43:34.773Z,2381.00
2023-05-01T08:44:34.684Z,3731.00
2023-05-01T08:45:34.678Z,5047.00
2023-05-01T08:46:34.766Z,3639.00
2023-05-01T08:47:34.656Z,3422.00
2023-05-01T08:48:34.629Z,3038.00
2023-05-01T08:49:34.623Z,3108.00
2023-05-01T08:50:34.598Z,3338.00
2023-05-01T08:51:34.628Z,3192.00
2023-05-01T08:52:34.587Z,3153.00
2023-05-01T08:53:34.571Z,3166.00
2023-05-01T08:54:34.549Z,3126.00
2023-05-01T08:55:34.567Z,3032.00
2023-05-01T08:56:34.550Z,3205.00
2023-05-01T08:57:34.522Z,3346.00
2023-05-01T08:58:34.497Z,1487.00
2023-05-01T08:59:34.495Z,3362.00
2023-05-01T09:00:34.467Z,3047.00
2023-05-01T09:01:34.547Z,3193.00
2023-05-01T09:02:34.490Z,2843.00
2023-05-01T09:03:34.508Z,4092.00
2023-05-01T09:04:34.435Z,3394.00
2023-05-01T09:05:34.418Z,3916.00
2023-05-01T09:06:34.556Z,1702.00
2023-05-01T09:07:34.394Z,3718.00
2023-05-01T09:08:34.354Z,4636.00
2023-05-01T09:09:34.349Z,2829.00
2023-05-01T09:10:34.581Z,3977.00
2023-05-01T09:11:34.353Z,3447.00
2023-05-01T09:12:34.311Z,3601.00
2023-05-01T09:13:34.302Z,2895.00
2023-05-01T09:14:34.283Z,4310.00
2023-05-01T09:15:34.270Z,2514.00
2023-05-01T09:16:34.343Z,2935.00
2023-05-01T09:17:34.352Z,3363.00
2023-05-01T09:18:34.398Z,2429.00
2023-05-01T09:19:34.225Z,2946.00
2023-05-01T09:20:34.345Z,2643.00
2023-05-01T09:21:34.310Z,3152.00
2023-05-01T09:22:34.180Z,3412.00
2023-05-01T09:23:34.346Z,3158.00
2023-05-01T09:24:34.248Z,3484.00
2023-05-01T09:25:34.432Z,3587.00
2023-05-01T09:26:34.147Z,2519.00
2023-05-01T09:27:34.156Z,3274.00
2023-05-01T09:28:34.327Z,4067.00
2023-05-01T09:29:34.094Z,4026.00
2023-05-01T09:30:34.083Z,3021.00
2023-05-01T09:31:34.320Z,2525.00
2023-05-01T09:32:34.362Z,3192.00
2023-05-01T09:33:34.150Z,2892.00
2023-05-01T09:34:34.025Z,2308.00
2023-05-01T09:35:34.036Z,4501.00
2023-05-01T09:36:34.030Z,2896.00
2023-05-01T09:37:34.047Z,2285.00
2023-05-01T09:38:33.974Z,3267.00
2023-05-01T09:39:33.962Z,2483.00
2023-05-01T09:40:33.974Z,3124.00
2023-05-01T09:41:34.031Z,3272.00
2023-05-01T09:42:33.923Z,3438.00
2023-05-01T09:43:33.934Z,3387.00
2023-05-01T09:44:33.917Z,3901.00
2023-05-01T09:45:34.008Z,3865.00
2023-05-01T09:46:34.097Z,2061.00
2023-05-01T09:47:33.983Z,3310.00
2023-05-01T09:48:35.673Z,1615.00
2023-05-01T09:49:33.855Z,3107.00
2023-05-01T09:50:33.957Z,2984.00
2023-05-01T09:51:33.818Z,2378.00
2023-05-01T09:52:33.969Z,1917.00
2023-05-01T09:53:33.959Z,2557.00
2023-05-01T09:54:33.772Z,4522.00
2023-05-01T09:55:33.776Z,1756.00
2023-05-01T09:56:33.900Z,3034.00
2023-05-01T09:57:33.841Z,3412.00
2023-05-01T09:58:33.718Z,2408.00
2023-05-01T09:59:33.783Z,2845.00
2023-05-01T10:00:33.707Z,2925.00
2023-05-01T10:01:33.755Z,2170.00
2023-05-01T10:02:33.810Z,2603.00
2023-05-01T10:03:33.698Z,2929.00
2023-05-01T10:04:33.670Z,2477.00
2023-05-01T10:05:33.640Z,2630.00
2023-05-01T10:06:33.648Z,3468.00
2023-05-01T10:07:33.645Z,1675.00
2023-05-01T10:08:33.684Z,3228.00
2023-05-01T10:09:33.592Z,3168.00
2023-05-01T10:10:33.580Z,2935.00
2023-05-01T10:11:33.649Z,2893.00
2023-05-01T10:12:33.573Z,2439.00
2023-05-01T10:13:33.542Z,2394.00
2023-05-01T10:14:33.523Z,3238.00
2023-05-01T10:15:33.525Z,2924.00
2023-05-01T10:16:33.512Z,1521.00
2023-05-01T10:17:33.730Z,4130.00
2023-05-01T10:18:33.485Z,2709.00
2023-05-01T10:19:33.726Z,1721.00
2023-05-01T10:20:33.450Z,2363.00
2023-05-01T10:21:33.586Z,1968.00
2023-05-01T10:22:33.442Z,2231.00
2023-05-01T10:23:33.649Z,2545.00
2023-05-01T10:24:33.407Z,3119.00
2023-05-01T10:25:33.395Z,3504.00
2023-05-01T10:26:33.402Z,1602.00
2023-05-01T10:27:33.384Z,1861.00
2023-05-01T10:28:33.348Z,2434.00
2023-05-01T10:29:33.333Z,1962.00
2023-05-01T10:30:33.420Z,3342.00
2023-05-01T10:31:33.563Z,1906.00
2023-05-01T10:32:33.324Z,2216.00
2023-05-01T10:33:33.309Z,3566.00
2023-05-01T10:34:33.406Z,2137.00
2023-05-01T10:35:33.469Z,2119.00
2023-05-01T10:36:33.353Z,3122.00
2023-05-01T10:37:33.550Z,2461.00
2023-05-01T10:38:33.215Z,3368.00
2023-05-01T10:39:33.330Z,2583.00
2023-05-01T10:40:33.336Z,2820.00
2023-05-01T10:41:33.173Z,2040.00
2023-05-01T10:42:33.182Z,5546.00
2023-05-01T10:43:33.421Z,1846.00
2023-05-01T10:44:33.203Z,4667.00
2023-05-01T10:45:33.950Z,2289.00
2023-05-01T10:46:33.416Z,4594.00
2023-05-01T10:47:33.419Z,3299.00
2023-05-01T10:48:33.228Z,1834.00
2023-05-01T10:49:33.072Z,3502.00
2023-05-01T10:50:33.052Z,3603.00
2023-05-01T10:51:33.046Z,1845.00
2023-05-01T10:52:33.044Z,3280.00
2023-05-01T10:53:33.042Z,1630.00
2023-05-01T10:54:33.944Z,2247.00
2023-05-01T10:55:32.989Z,1976.00
2023-05-01T10:56:32.983Z,2794.00
2023-05-01T10:57:33.027Z,2747.00
2023-05-01T10:58:33.783Z,4956.00
2023-05-01T10:59:32.940Z,1678.00
2023-05-01T11:00:32.930Z,3176.00
2023-05-01T11:01:33.054Z,2759.00
2023-05-01T11:02:32.951Z,1887.00
2023-05-01T11:03:32.890Z,3995.00
2023-05-01T11:04:32.903Z,5564.00
2023-05-01T11:05:38.472Z,1085.00
2023-05-01T11:06:34.180Z,4694.00
2023-05-01T11:07:32.895Z,2445.00
2023-05-01T11:08:32.913Z,2644.00
2023-05-01T11:09:33.087Z,2444.00
2023-05-01T11:10:33.014Z,1408.00
2023-05-01T11:11:32.879Z,2352.00
2023-05-01T11:12:32.805Z,2357.00
2023-05-01T11:13:32.998Z,4300.00
2023-05-01T11:14:32.745Z,2102.00
2023-05-01T11:15:37.121Z,5055.00
2023-05-01T11:16:32.892Z,2023.00
2023-05-01T11:17:32.831Z,3144.00
2023-05-01T11:18:32.681Z,2950.00
2023-05-01T11:19:32.661Z,4096.00
2023-05-01T11:20:32.663Z,2361.00
2023-05-01T11:21:32.655Z,3667.00
2023-05-01T11:22:32.654Z,3107.00
2023-05-01T11:23:32.622Z,2776.00
2023-05-01T11:24:33.555Z,3709.00
2023-05-01T11:25:32.603Z,4728.00
2023-05-01T11:26:32.758Z,5640.00
2023-05-01T11:27:32.692Z,6112.00
2023-05-01T11:28:32.566Z,3312.00
2023-05-01T11:29:32.540Z,4590.00
2023-05-01T11:30:32.529Z,4227.00
2023-05-01T11:31:32.577Z,3657.00
2023-05-01T11:32:32.579Z,3344.00
2023-05-01T11:33:32.511Z,3216.00
2023-05-01T11:34:32.481Z,3242.00
2023-05-01T11:35:32.463Z,3196.00
2023-05-01T11:36:32.476Z,3882.00
2023-05-01T11:37:32.476Z,3964.00
2023-05-01T11:38:32.461Z,3917.00
2023-05-01T11:39:32.408Z,4171.00
2023-05-01T11:40:32.407Z,3870.00
2023-05-01T11:41:32.398Z,3687.00
2023-05-01T11:42:32.485Z,3630.00
2023-05-01T11:43:32.367Z,3762.00
2023-05-01T11:44:32.336Z,3887.00
2023-05-01T11:45:32.403Z,3845.00
2023-05-01T11:46:32.353Z,3746.00
2023-05-01T11:47:32.409Z,3736.00
2023-05-01T11:48:32.312Z,3916.00
2023-05-01T11:49:32.279Z,2753.00
2023-05-01T11:50:32.468Z,4333.00
2023-05-01T11:51:32.256Z,3505.00
2023-05-01T11:52:32.272Z,5677.00
2023-05-01T11:53:32.270Z,3749.00
2023-05-01T11:54:32.220Z,3122.00
2023-05-01T11:55:32.188Z,5071.00
2023-05-01T11:56:32.224Z,4144.00
2023-05-01T11:57:32.200Z,4484.00
2023-05-01T11:58:32.191Z,4603.00
2023-05-01T11:59:32.195Z,4353.00
2023-05-01T12:00:32.136Z,4034.00
2023-05-01T12:01:32.119Z,4582.00
2023-05-01T12:02:32.301Z,4719.00
2023-05-01T12:03:32.297Z,4799.00
2023-05-01T12:04:32.637Z,5078.00
2023-05-01T12:05:32.103Z,5020.00
2023-05-01T12:06:32.106Z,4371.00
2023-05-01T12:07:32.085Z,5465.00
2023-05-01T12:08:32.037Z,4638.00
2023-05-01T12:09:32.017Z,4507.00
2023-05-01T12:10:34.055Z,4038.00
2023-05-01T12:11:31.982Z,4756.00
2023-05-01T12:12:32.017Z,5722.00
2023-05-01T12:13:31.962Z,5330.00
2023-05-01T12:14:31.962Z,5225.00
2023-05-01T12:15:31.932Z,4865.00
2023-05-01T12:16:32.810Z,4721.00
2023-05-01T12:17:31.982Z,5296.00
2023-05-01T12:18:31.911Z,4770.00
2023-05-01T12:19:31.887Z,4686.00
2023-05-01T12:20:31.897Z,4881.00
2023-05-01T12:21:31.869Z,4726.00
2023-05-01T12:22:31.871Z,4651.00
2023-05-01T12:23:31.831Z,4666.00
2023-05-01T12:24:31.831Z,4544.00
2023-05-01T12:25:31.801Z,4178.00
2023-05-01T12:26:31.790Z,3836.00
2023-05-01T12:27:31.779Z,4213.00
2023-05-01T12:28:31.790Z,3267.00
2023-05-01T12:29:31.744Z,4996.00
2023-05-01T12:30:31.753Z,4077.00